createdAt,value
2019-03-15T00:02:11.574Z,100.00
2019-03-15T00:04:40.047Z,100.00
2019-03-15T00:07:04.197Z,100.00
2019-03-15T00:09:30.505Z,100.00
2019-03-15T00:11:56.819Z,99.96
2019-03-15T00:14:23.132Z,99.51
2019-03-15T00:16:49.448Z,100.00
2019-03-15T00:19:15.759Z,100.00
2019-03-15T00:21:42.115Z,100.00
2019-03-15T00:24:08.425Z,100.00
2019-03-15T00:26:34.740Z,100.00
2019-03-15T00:29:01.055Z,100.00
2019-03-15T00:31:27.370Z,99.35
2019-03-15T00:33:53.674Z,98.30
2019-03-15T00:36:19.980Z,97.42
2019-03-15T00:38:46.289Z,96.88
2019-03-15T00:41:12.596Z,96.38
2019-03-15T00:43:38.924Z,95.90
2019-03-15T00:46:05.232Z,95.49
2019-03-15T00:48:31.561Z,95.28
2019-03-15T00:50:57.860Z,95.10
2019-03-15T00:53:24.202Z,94.84
2019-03-15T00:55:50.506Z,94.79
2019-03-15T00:58:16.815Z,94.53
2019-03-15T01:00:43.132Z,94.23
2019-03-15T01:03:09.456Z,94.00
2019-03-15T01:05:35.752Z,93.83
2019-03-15T01:08:02.088Z,93.64
2019-03-15T01:10:28.368Z,93.47
2019-03-15T01:12:54.678Z,93.33
2019-03-15T01:15:21.015Z,93.20
2019-03-15T01:17:47.321Z,93.04
2019-03-15T01:20:13.621Z,93.24
2019-03-15T01:22:39.929Z,96.02
2019-03-15T01:25:06.243Z,99.20
2019-03-15T01:27:32.804Z,99.29
2019-03-15T01:29:58.860Z,98.24
2019-03-15T01:32:25.187Z,97.20
2019-03-15T01:34:51.502Z,96.35
2019-03-15T01:37:17.807Z,95.92
2019-03-15T01:39:44.118Z,95.32
2019-03-15T01:42:10.424Z,94.76
2019-03-15T01:44:36.731Z,94.37
2019-03-15T01:47:03.039Z,93.88
2019-03-15T01:49:29.363Z,93.52
2019-03-15T01:51:55.672Z,93.05
2019-03-15T01:54:21.971Z,92.75
2019-03-15T01:56:48.280Z,92.52
2019-03-15T01:59:14.585Z,92.24
2019-03-15T02:01:40.896Z,91.94
2019-03-15T02:04:07.203Z,91.60
2019-03-15T02:06:33.534Z,91.26
2019-03-15T02:08:59.843Z,90.93
2019-03-15T02:11:26.181Z,90.62
2019-03-15T02:13:52.459Z,90.44
2019-03-15T02:16:18.760Z,90.08
2019-03-15T02:18:45.072Z,89.80
2019-03-15T02:21:11.384Z,89.45
2019-03-15T02:23:37.712Z,89.13
2019-03-15T02:26:04.016Z,90.21
2019-03-15T02:28:30.320Z,93.16
2019-03-15T02:30:56.653Z,94.82
2019-03-15T02:33:22.942Z,93.80
2019-03-15T02:35:49.261Z,92.61
2019-03-15T02:38:15.553Z,91.62
2019-03-15T02:40:41.864Z,90.73
2019-03-15T02:43:08.164Z,90.03
2019-03-15T02:45:34.500Z,89.44
2019-03-15T02:48:00.802Z,88.95
2019-03-15T02:50:27.122Z,88.36
2019-03-15T02:52:53.434Z,88.05
2019-03-15T02:55:21.089Z,87.70
2019-03-15T02:57:46.033Z,87.35
2019-03-15T03:00:13.252Z,87.06
2019-03-15T03:02:38.688Z,86.65
2019-03-15T03:05:04.983Z,86.36
2019-03-15T03:07:31.308Z,86.33
2019-03-15T03:09:57.620Z,88.41
2019-03-15T03:12:23.926Z,91.22
2019-03-15T03:14:50.227Z,93.55
2019-03-15T03:17:16.532Z,94.00
2019-03-15T03:19:42.848Z,92.49
2019-03-15T03:22:09.406Z,91.09
2019-03-15T03:24:35.500Z,89.99
2019-03-15T03:27:01.812Z,89.11
2019-03-15T03:29:28.119Z,88.22
2019-03-15T03:31:54.422Z,87.55
2019-03-15T03:34:20.742Z,87.20
2019-03-15T03:36:47.054Z,86.84
2019-03-15T03:39:13.362Z,86.34
2019-03-15T03:41:39.662Z,85.96
2019-03-15T03:44:06.022Z,85.72
2019-03-15T03:46:32.275Z,85.47
2019-03-15T03:48:58.594Z,85.35
2019-03-15T03:51:24.898Z,85.20
2019-03-15T03:53:51.211Z,85.24
2019-03-15T03:56:17.655Z,87.53
2019-03-15T03:58:43.820Z,90.19
2019-03-15T04:01:10.142Z,92.41
2019-03-15T04:03:36.503Z,92.49
2019-03-15T04:06:02.821Z,91.29
2019-03-15T04:08:29.128Z,89.96
2019-03-15T04:10:55.431Z,89.01
2019-03-15T04:13:21.748Z,88.26
2019-03-15T04:15:48.107Z,87.77
2019-03-15T04:18:14.540Z,87.43
2019-03-15T04:20:40.848Z,87.09
2019-03-15T04:23:07.160Z,86.83
2019-03-15T04:25:33.466Z,86.60
2019-03-15T04:27:59.774Z,86.49
2019-03-15T04:30:26.086Z,86.39
2019-03-15T04:32:52.390Z,86.35
2019-03-15T04:35:18.732Z,86.37
2019-03-15T04:37:45.058Z,86.53
2019-03-15T04:40:11.367Z,86.96
2019-03-15T04:42:37.663Z,87.35
2019-03-15T04:45:03.979Z,89.02
2019-03-15T04:47:30.281Z,91.00
2019-03-15T04:49:56.595Z,90.67
2019-03-15T04:52:22.903Z,89.61
2019-03-15T04:54:49.213Z,88.54
2019-03-15T04:57:15.522Z,87.82
2019-03-15T04:59:41.830Z,87.15
2019-03-15T05:02:08.148Z,86.78
2019-03-15T05:04:34.451Z,86.57
2019-03-15T05:07:00.761Z,86.41
2019-03-15T05:09:27.074Z,86.46
2019-03-15T05:11:53.375Z,86.52
2019-03-15T05:14:19.679Z,86.64
2019-03-15T05:16:45.985Z,86.78
2019-03-15T05:19:12.287Z,86.96
2019-03-15T05:21:38.587Z,87.29
2019-03-15T05:24:04.896Z,87.57
2019-03-15T05:26:31.199Z,87.86
2019-03-15T05:28:57.508Z,88.21
2019-03-15T05:31:23.820Z,88.49
2019-03-15T05:33:50.133Z,88.65
2019-03-15T05:36:16.438Z,87.91
2019-03-15T05:38:42.740Z,84.58
2019-03-15T05:41:09.044Z,88.00
2019-03-15T05:43:35.386Z,87.38
2019-03-15T05:46:01.698Z,100.00
2019-03-15T05:48:28.033Z,100.00
2019-03-15T05:50:54.338Z,100.00
2019-03-15T05:53:20.670Z,100.00
2019-03-15T05:55:46.951Z,100.00
2019-03-15T05:58:13.259Z,100.00
2019-03-15T06:00:39.574Z,100.00
2019-03-15T06:03:05.883Z,99.89
2019-03-15T06:05:32.193Z,99.01
2019-03-15T06:07:58.500Z,98.28
2019-03-15T06:10:24.811Z,98.29
2019-03-15T06:12:51.124Z,97.82
2019-03-15T06:15:17.437Z,97.17
2019-03-15T06:17:43.801Z,96.46
2019-03-15T06:20:10.077Z,95.87
2019-03-15T06:22:36.380Z,95.52
2019-03-15T06:25:02.695Z,95.86
2019-03-15T06:27:31.228Z,95.49
2019-03-15T06:29:55.312Z,95.17
2019-03-15T06:32:21.621Z,95.33
2019-03-15T06:34:47.927Z,95.58
2019-03-15T06:37:14.234Z,95.92
2019-03-15T06:39:40.548Z,95.77
2019-03-15T06:42:06.856Z,95.86
2019-03-15T06:44:33.193Z,95.79
2019-03-15T06:46:59.518Z,95.77
2019-03-15T06:49:25.842Z,95.72
2019-03-15T06:51:52.171Z,95.67
2019-03-15T06:54:18.508Z,95.61
2019-03-15T06:56:44.808Z,95.20
2019-03-15T06:59:11.172Z,95.07
2019-03-15T07:01:37.499Z,94.91
2019-03-15T07:04:03.805Z,94.92
2019-03-15T07:06:30.115Z,94.76
2019-03-15T07:08:56.438Z,94.58
2019-03-15T07:11:22.768Z,94.38
2019-03-15T07:13:49.074Z,93.95
2019-03-15T07:16:15.384Z,93.42
2019-03-15T07:18:41.700Z,93.06
2019-03-15T07:21:08.090Z,92.69
2019-03-15T07:23:34.335Z,92.36
2019-03-15T07:26:00.639Z,92.02
2019-03-15T07:28:26.951Z,91.83
2019-03-15T07:30:53.286Z,91.55
2019-03-15T07:33:19.613Z,91.15
2019-03-15T07:35:45.920Z,90.80
2019-03-15T07:38:12.293Z,90.48
2019-03-15T07:40:38.626Z,90.17
2019-03-15T07:43:05.489Z,89.86
2019-03-15T07:45:31.248Z,89.72
2019-03-15T07:47:57.565Z,89.18
2019-03-15T07:50:23.871Z,88.84
2019-03-15T07:52:50.193Z,88.56
2019-03-15T07:55:16.493Z,88.51
2019-03-15T07:57:42.803Z,88.40
2019-03-15T08:00:09.108Z,87.94
2019-03-15T08:02:35.439Z,87.52
2019-03-15T08:05:01.751Z,86.95
2019-03-15T08:07:36.266Z,87.09
2019-03-15T08:09:54.391Z,87.25
2019-03-15T08:12:20.676Z,87.28
2019-03-15T08:14:46.990Z,86.74
2019-03-15T08:17:13.287Z,86.19
2019-03-15T08:19:39.596Z,85.51
2019-03-15T08:22:05.905Z,84.64
2019-03-15T08:24:32.209Z,83.84
2019-03-15T08:26:58.536Z,83.16
2019-03-15T08:29:24.846Z,82.76
2019-03-15T08:31:51.173Z,82.54
2019-03-15T08:34:17.489Z,82.43
2019-03-15T08:36:43.799Z,82.29
2019-03-15T08:39:10.105Z,81.96
2019-03-15T08:41:36.428Z,82.88
2019-03-15T08:44:03.000Z,87.53
2019-03-15T08:46:29.310Z,92.35
2019-03-15T08:48:55.619Z,96.34
2019-03-15T08:51:21.935Z,94.29
2019-03-15T08:53:48.239Z,91.87
2019-03-15T08:56:14.817Z,89.70
2019-03-15T08:58:40.878Z,88.00
2019-03-15T09:01:07.234Z,86.85
2019-03-15T09:03:34.494Z,85.85
2019-03-15T09:05:59.858Z,85.23
2019-03-15T09:08:26.178Z,84.21
2019-03-15T09:10:52.477Z,83.51
2019-03-15T09:13:18.788Z,82.56
2019-03-15T09:15:45.093Z,81.90
2019-03-15T09:18:11.482Z,81.25
2019-03-15T09:20:37.919Z,80.70
2019-03-15T09:23:04.229Z,80.04
2019-03-15T09:25:30.532Z,79.70
2019-03-15T09:27:56.841Z,79.00
2019-03-15T09:30:24.396Z,79.61
2019-03-15T09:32:49.507Z,84.35
2019-03-15T09:35:15.943Z,89.21
2019-03-15T09:37:42.285Z,93.10
2019-03-15T09:40:08.513Z,95.76
2019-03-15T09:42:34.839Z,98.12
2019-03-15T09:45:01.132Z,99.77
2019-03-15T09:47:27.455Z,100.00
2019-03-15T09:49:53.752Z,98.16
2019-03-15T09:52:20.081Z,93.76
2019-03-15T09:54:46.401Z,89.73
2019-03-15T09:57:12.707Z,92.20
2019-03-15T09:59:39.013Z,96.48
2019-03-15T10:02:07.812Z,97.39
2019-03-15T10:04:31.644Z,93.36
2019-03-15T10:06:57.981Z,89.67
2019-03-15T10:09:24.308Z,87.45
2019-03-15T10:11:50.606Z,90.36
2019-03-15T10:14:16.951Z,94.34
2019-03-15T10:16:43.265Z,93.92
2019-03-15T10:19:09.583Z,90.37
2019-03-15T10:21:35.955Z,87.33
2019-03-15T10:24:02.260Z,87.37
2019-03-15T10:26:28.565Z,90.81
2019-03-15T10:28:54.870Z,94.65
2019-03-15T10:31:21.208Z,97.29
2019-03-15T10:33:50.669Z,98.65
2019-03-15T10:36:13.841Z,99.39
2019-03-15T10:38:40.165Z,100.00
2019-03-15T10:41:06.479Z,100.00
2019-03-15T10:43:32.830Z,100.00
2019-03-15T10:45:59.145Z,100.00
2019-03-15T10:48:25.837Z,100.00
2019-03-15T10:50:51.787Z,100.00
2019-03-15T10:53:18.107Z,100.00
2019-03-15T10:55:44.444Z,100.00
2019-03-15T10:58:10.780Z,100.00
2019-03-15T11:00:37.090Z,100.00
2019-03-15T11:03:03.411Z,100.00
2019-03-15T11:05:29.717Z,100.00
2019-03-15T11:07:56.037Z,100.00
2019-03-15T11:10:22.349Z,100.00
2019-03-15T11:12:48.682Z,100.00
2019-03-15T11:15:14.988Z,100.00
2019-03-15T11:17:41.305Z,100.00
2019-03-15T11:20:07.618Z,100.00
2019-03-15T11:22:33.935Z,100.00
2019-03-15T11:25:00.452Z,100.00
2019-03-15T11:27:26.582Z,100.00
2019-03-15T11:29:52.896Z,100.00
2019-03-15T11:32:19.207Z,100.00
2019-03-15T11:34:45.550Z,100.00
2019-03-15T11:37:11.866Z,100.00
2019-03-15T11:39:40.397Z,100.00
2019-03-15T11:42:06.708Z,96.60
2019-03-15T11:44:33.098Z,93.33
2019-03-15T11:46:59.337Z,90.99
2019-03-15T11:49:28.091Z,89.03
2019-03-15T11:51:51.971Z,87.74
2019-03-15T11:54:18.426Z,85.74
2019-03-15T11:56:44.727Z,84.48
2019-03-15T11:59:11.046Z,84.99
2019-03-15T12:01:37.853Z,89.09
2019-03-15T12:04:03.717Z,92.50
2019-03-15T12:06:30.018Z,95.04
2019-03-15T12:08:56.351Z,96.88
2019-03-15T12:11:22.664Z,93.59
2019-03-15T12:13:48.992Z,90.54
2019-03-15T12:16:15.301Z,88.30
2019-03-15T12:18:41.691Z,86.06
2019-03-15T12:21:07.926Z,84.10
2019-03-15T12:23:34.230Z,83.14
2019-03-15T12:26:00.549Z,81.89
2019-03-15T12:28:26.847Z,81.07
2019-03-15T12:30:53.159Z,80.35
2019-03-15T12:33:19.486Z,79.66
2019-03-15T12:35:45.806Z,78.58
2019-03-15T12:38:12.117Z,78.23
2019-03-15T12:40:38.452Z,77.11
2019-03-15T12:43:04.753Z,76.44
2019-03-15T12:45:31.070Z,75.79
2019-03-15T12:47:57.376Z,75.20
2019-03-15T12:50:23.692Z,74.56
2019-03-15T12:52:50.003Z,73.67
2019-03-15T12:55:16.331Z,73.50
2019-03-15T12:57:42.637Z,72.89
2019-03-15T13:00:08.945Z,72.46
2019-03-15T13:02:35.253Z,71.73
2019-03-15T13:05:01.576Z,71.50
2019-03-15T13:07:27.885Z,70.15
2019-03-15T13:09:54.221Z,69.53
2019-03-15T13:12:20.529Z,69.23
2019-03-15T13:14:46.855Z,69.12
2019-03-15T13:17:13.165Z,69.34
2019-03-15T13:19:39.472Z,69.09
2019-03-15T13:22:05.791Z,68.69
2019-03-15T13:24:32.110Z,68.44
2019-03-15T13:27:07.344Z,68.47
2019-03-15T13:29:24.723Z,68.13
2019-03-15T13:31:51.056Z,67.66
2019-03-15T13:34:17.371Z,67.47
2019-03-15T13:36:43.673Z,67.07
2019-03-15T13:39:09.989Z,66.66
2019-03-15T13:41:36.301Z,66.25
2019-03-15T13:44:02.620Z,65.76
2019-03-15T13:46:28.929Z,65.27
2019-03-15T13:48:55.276Z,65.01
2019-03-15T13:51:22.828Z,64.75
2019-03-15T13:53:47.895Z,64.52
2019-03-15T13:56:14.202Z,64.17
2019-03-15T13:58:40.544Z,63.83
2019-03-15T14:01:06.820Z,63.58
2019-03-15T14:03:33.156Z,63.47
2019-03-15T14:05:59.449Z,63.10
2019-03-15T14:08:25.761Z,62.79
2019-03-15T14:10:52.110Z,62.61
2019-03-15T14:13:18.418Z,62.34
2019-03-15T14:15:44.774Z,62.17
2019-03-15T14:18:11.088Z,61.85
2019-03-15T14:20:37.412Z,61.65
2019-03-15T14:23:03.765Z,61.36
2019-03-15T14:25:30.038Z,61.13
2019-03-15T14:27:56.355Z,60.94
2019-03-15T14:30:22.684Z,60.78
2019-03-15T14:32:48.984Z,60.71
2019-03-15T14:35:15.294Z,60.38
2019-03-15T14:37:41.642Z,60.22
2019-03-15T14:40:07.930Z,60.06
2019-03-15T14:42:34.402Z,59.87
2019-03-15T14:45:00.716Z,59.77
2019-03-15T14:47:26.895Z,59.64
2019-03-15T14:49:53.256Z,59.50
2019-03-15T14:52:19.569Z,59.41
2019-03-15T14:54:45.886Z,59.36
2019-03-15T14:57:12.198Z,59.08
2019-03-15T14:59:38.504Z,58.97
2019-03-15T15:02:04.841Z,58.88
2019-03-15T15:04:31.147Z,58.81
2019-03-15T15:06:57.456Z,58.71
2019-03-15T15:09:23.773Z,58.58
2019-03-15T15:11:50.087Z,52.17
2019-03-15T15:14:16.397Z,50.07
2019-03-15T15:16:42.781Z,42.61
2019-03-15T15:19:09.098Z,39.41
2019-03-15T15:21:35.400Z,37.17
2019-03-15T15:24:01.736Z,36.01
2019-03-15T15:26:28.037Z,34.61
2019-03-15T15:28:54.348Z,36.30
2019-03-15T15:31:20.671Z,35.22
2019-03-15T15:33:46.981Z,35.87
2019-03-15T15:36:13.292Z,35.20
2019-03-15T15:38:39.597Z,34.51
2019-03-15T15:41:05.938Z,34.61
2019-03-15T15:43:32.245Z,34.03
2019-03-15T15:45:58.567Z,36.34
2019-03-15T15:48:24.943Z,37.41
2019-03-15T15:50:51.253Z,38.52
2019-03-15T15:53:17.560Z,39.76
2019-03-15T15:55:43.866Z,41.18
2019-03-15T15:58:17.910Z,42.35
2019-03-15T16:00:36.492Z,43.57
2019-03-15T16:03:02.805Z,44.73
2019-03-15T16:05:29.109Z,45.87
2019-03-15T16:07:56.785Z,46.85
2019-03-15T16:10:21.853Z,47.87
2019-03-15T16:12:48.179Z,48.78
2019-03-15T16:15:14.493Z,49.61
2019-03-15T16:17:40.796Z,50.50
2019-03-15T16:20:07.119Z,51.40
2019-03-15T16:22:33.426Z,52.19
2019-03-15T16:24:59.732Z,52.90
2019-03-15T16:27:26.045Z,53.56
2019-03-15T16:29:52.349Z,54.32
2019-03-15T16:32:18.657Z,55.03
2019-03-15T16:34:44.964Z,54.71
2019-03-15T16:37:11.274Z,54.79
2019-03-15T16:39:37.608Z,55.52
2019-03-15T16:42:03.937Z,56.37
2019-03-15T16:44:30.242Z,57.22
2019-03-15T16:46:56.588Z,58.03
2019-03-15T16:49:22.914Z,58.85
2019-03-15T16:51:49.212Z,59.60
2019-03-15T16:54:15.543Z,60.33
2019-03-15T16:56:41.871Z,61.13
2019-03-15T16:59:08.199Z,61.85
2019-03-15T17:01:34.505Z,62.61
2019-03-15T17:04:00.817Z,63.40
2019-03-15T17:06:27.121Z,64.11
2019-03-15T17:08:53.448Z,64.84
2019-03-15T17:11:22.595Z,65.51
2019-03-15T17:13:46.125Z,66.22
2019-03-15T17:16:12.524Z,66.89
2019-03-15T17:18:38.744Z,67.68
2019-03-15T17:21:05.070Z,68.41
2019-03-15T17:23:31.441Z,69.11
2019-03-15T17:25:57.749Z,69.82
2019-03-15T17:28:24.054Z,70.42
2019-03-15T17:30:50.364Z,71.08
2019-03-15T17:33:16.683Z,71.55
2019-03-15T17:35:42.996Z,72.24
2019-03-15T17:38:09.305Z,72.76
2019-03-15T17:40:38.025Z,73.48
2019-03-15T17:43:04.338Z,74.11
2019-03-15T17:45:30.658Z,74.74
2019-03-15T17:47:56.964Z,75.40
2019-03-15T17:50:23.320Z,75.91
2019-03-15T17:52:49.641Z,75.03
2019-03-15T17:55:15.947Z,75.33
2019-03-15T17:57:45.383Z,75.94
2019-03-15T18:00:08.593Z,76.62
2019-03-15T18:02:34.905Z,77.42
2019-03-15T18:05:01.233Z,78.03
2019-03-15T18:07:27.641Z,78.68
2019-03-15T18:09:53.937Z,79.12
2019-03-15T18:12:20.245Z,79.59
2019-03-15T18:14:46.559Z,80.03
2019-03-15T18:17:12.867Z,80.31
2019-03-15T18:19:39.224Z,80.52
2019-03-15T18:22:06.654Z,80.86
2019-03-15T18:24:33.043Z,81.14
2019-03-15T18:26:59.319Z,81.39
2019-03-15T18:29:26.740Z,81.57
2019-03-15T18:31:52.080Z,81.83
2019-03-15T18:34:18.402Z,81.93
2019-03-15T18:36:44.709Z,82.14
2019-03-15T18:39:11.016Z,82.38
2019-03-15T18:41:37.326Z,82.38
2019-03-15T18:44:03.714Z,82.71
2019-03-15T18:46:29.984Z,82.98
2019-03-15T18:48:56.307Z,83.20
2019-03-15T18:51:22.637Z,83.38
2019-03-15T18:53:48.966Z,83.48
2019-03-15T18:56:15.271Z,83.84
2019-03-15T18:58:41.582Z,84.02
2019-03-15T19:01:07.893Z,84.16
2019-03-15T19:03:34.196Z,84.42
2019-03-15T19:06:00.500Z,84.64
2019-03-15T19:08:26.832Z,84.78
2019-03-15T19:10:53.125Z,84.94
2019-03-15T19:13:19.432Z,85.19
2019-03-15T19:15:45.737Z,85.40
2019-03-15T19:18:12.101Z,85.67
2019-03-15T19:20:38.462Z,85.92
2019-03-15T19:23:04.708Z,86.16
2019-03-15T19:25:31.021Z,86.41
2019-03-15T19:27:57.327Z,86.70
2019-03-15T19:30:23.661Z,87.00
2019-03-15T19:32:49.952Z,87.21
2019-03-15T19:35:16.275Z,87.42
2019-03-15T19:37:42.924Z,87.69
2019-03-15T19:40:09.207Z,87.86
2019-03-15T19:42:35.513Z,88.03
2019-03-15T19:45:01.821Z,88.15
2019-03-15T19:47:28.126Z,88.45
2019-03-15T19:49:54.487Z,88.88
2019-03-15T19:52:20.802Z,89.17
2019-03-15T19:54:59.442Z,89.50
2019-03-15T19:57:13.431Z,89.76
2019-03-15T19:59:39.737Z,87.14
2019-03-15T20:02:06.039Z,85.50
2019-03-15T20:04:32.410Z,83.79
2019-03-15T20:06:58.729Z,83.38
2019-03-15T20:09:25.064Z,83.92
2019-03-15T20:11:51.372Z,84.90
2019-03-15T20:14:17.679Z,85.78
2019-03-15T20:16:44.006Z,86.55
2019-03-15T20:19:10.338Z,87.27
2019-03-15T20:21:36.686Z,87.95
2019-03-15T20:24:02.987Z,88.51
2019-03-15T20:26:29.369Z,89.04
2019-03-15T20:28:55.692Z,89.34
2019-03-15T20:31:22.004Z,89.87
2019-03-15T20:33:48.315Z,90.24
2019-03-15T20:36:14.620Z,90.68
2019-03-15T20:38:40.986Z,91.05
2019-03-15T20:41:07.332Z,91.24
2019-03-15T20:43:33.647Z,91.46
2019-03-15T20:45:59.949Z,91.71
2019-03-15T20:48:26.281Z,91.82
2019-03-15T20:50:52.593Z,92.08
2019-03-15T20:53:18.903Z,92.26
2019-03-15T20:55:45.322Z,92.52
2019-03-15T20:58:11.544Z,92.67
2019-03-15T21:00:37.845Z,92.73
2019-03-15T21:03:04.184Z,92.84
2019-03-15T21:05:30.503Z,92.87
2019-03-15T21:07:56.810Z,92.99
2019-03-15T21:10:23.142Z,93.12
2019-03-15T21:12:49.453Z,93.09
2019-03-15T21:15:15.762Z,93.26
2019-03-15T21:17:42.072Z,93.50
2019-03-15T21:20:08.403Z,93.71
2019-03-15T21:22:34.708Z,93.61
2019-03-15T21:25:01.022Z,93.71
2019-03-15T21:27:27.329Z,93.91
2019-03-15T21:29:53.632Z,94.00
2019-03-15T21:32:19.958Z,93.97
2019-03-15T21:34:46.268Z,93.81
2019-03-15T21:37:12.579Z,93.84
2019-03-15T21:39:38.885Z,93.96
2019-03-15T21:42:05.215Z,94.00
2019-03-15T21:44:31.525Z,94.07
2019-03-15T21:46:57.835Z,94.04
2019-03-15T21:49:24.148Z,93.84
2019-03-15T21:51:50.450Z,93.68
2019-03-15T21:54:16.756Z,93.66
2019-03-15T21:56:43.063Z,93.50
2019-03-15T21:59:09.375Z,93.57
2019-03-15T22:01:35.678Z,93.53
2019-03-15T22:04:01.986Z,93.36
2019-03-15T22:06:28.294Z,93.08
2019-03-15T22:08:54.602Z,92.94
2019-03-15T22:11:21.702Z,92.78
2019-03-15T22:13:47.318Z,92.65
2019-03-15T22:16:13.528Z,92.51
2019-03-15T22:18:39.833Z,92.35
2019-03-15T22:21:06.152Z,92.19
2019-03-15T22:23:32.469Z,92.04
2019-03-15T22:25:58.823Z,91.82
2019-03-15T22:28:25.128Z,91.62
2019-03-15T22:30:51.433Z,91.44
2019-03-15T22:33:17.747Z,91.28
2019-03-15T22:35:44.066Z,91.18
2019-03-15T22:38:10.374Z,91.15
2019-03-15T22:40:36.744Z,91.02
2019-03-15T22:43:02.988Z,91.03
2019-03-15T22:45:29.296Z,91.00
2019-03-15T22:47:55.627Z,90.92
2019-03-15T22:50:21.932Z,90.82
2019-03-15T22:52:48.232Z,90.66
2019-03-15T22:55:14.539Z,90.59
2019-03-15T22:57:40.849Z,90.58
2019-03-15T23:00:07.188Z,90.62
2019-03-15T23:02:33.498Z,90.60
2019-03-15T23:04:59.811Z,90.64
2019-03-15T23:07:26.121Z,90.68
2019-03-15T23:09:52.420Z,90.71
2019-03-15T23:12:18.732Z,90.63
2019-03-15T23:14:45.043Z,90.59
2019-03-15T23:17:11.373Z,90.56
2019-03-15T23:19:37.680Z,90.57
2019-03-15T23:22:03.989Z,90.58
2019-03-15T23:24:30.304Z,90.58
2019-03-15T23:26:56.669Z,90.52
2019-03-15T23:29:22.949Z,90.39
2019-03-15T23:31:49.270Z,90.30
2019-03-15T23:34:15.562Z,90.29
2019-03-15T23:36:41.868Z,90.24
2019-03-15T23:39:08.176Z,90.28
2019-03-15T23:41:34.480Z,90.24
2019-03-15T23:44:00.823Z,90.17
2019-03-15T23:46:27.124Z,90.23
2019-03-15T23:48:53.438Z,90.15
2019-03-15T23:51:19.749Z,90.16
2019-03-15T23:53:46.059Z,90.19
2019-03-15T23:56:12.372Z,90.18
2019-03-15T23:58:38.683Z,90.14
